sensor_id;sensor_type;location;lat;lon;timestamp;P1;durP1;ratioP1;P2;durP2;ratioP2
24389;SDS011;12510;56.468;-3.004;2022-11-23T00:00:58;61.30;;;14.15;;
24389;SDS011;12510;56.468;-3.004;2022-11-23T00:03:24;116.30;;;18.20;;
24389;SDS011;12510;56.468;-3.004;2022-11-23T00:05:50;91.75;;;16.20;;
24389;SDS011;12510;56.468;-3.004;2022-11-23T00:08:16;93.60;;;17.60;;
24389;SDS011;12510;56.468;-3.004;2022-11-23T00:10:42;56.30;;;14.82;;
24389;SDS011;12510;56.468;-3.004;2022-11-23T00:13:08;83.53;;;15.90;;
24389;SDS011;12510;56.468;-3.004;2022-11-23T00:15:34;32.08;;;11.02;;
24389;SDS011;12510;56.468;-3.004;2022-11-23T00:18:00;22.98;;;10.13;;
24389;SDS011;12510;56.468;-3.004;2022-11-23T00:20:27;22.63;;;10.30;;
24389;SDS011;12510;56.468;-3.004;2022-11-23T00:22:53;14.48;;;8.95;;
24389;SDS011;12510;56.468;-3.004;2022-11-23T00:25:19;24.92;;;9.40;;
24389;SDS011;12510;56.468;-3.004;2022-11-23T00:27:45;17.88;;;9.00;;
24389;SDS011;12510;56.468;-3.004;2022-11-23T00:30:11;19.40;;;8.85;;
24389;SDS011;12510;56.468;-3.004;2022-11-23T00:32:37;18.70;;;9.20;;
24389;SDS011;12510;56.468;-3.004;2022-11-23T00:35:06;20.65;;;8.88;;
24389;SDS011;12510;56.468;-3.004;2022-11-23T00:37:32;16.25;;;9.38;;
24389;SDS011;12510;56.468;-3.004;2022-11-23T00:39:58;13.82;;;8.00;;
24389;SDS011;12510;56.468;-3.004;2022-11-23T00:42:24;19.10;;;8.50;;
24389;SDS011;12510;56.468;-3.004;2022-11-23T00:44:50;12.43;;;8.50;;
24389;SDS011;12510;56.468;-3.004;2022-11-23T00:47:16;14.23;;;8.80;;
24389;SDS011;12510;56.468;-3.004;2022-11-23T00:49:42;21.85;;;9.27;;
24389;SDS011;12510;56.468;-3.004;2022-11-23T00:52:08;21.83;;;9.50;;
24389;SDS011;12510;56.468;-3.004;2022-11-23T00:54:35;21.45;;;10.02;;
24389;SDS011;12510;56.468;-3.004;2022-11-23T00:57:01;65.15;;;13.95;;
24389;SDS011;12510;56.468;-3.004;2022-11-23T00:59:27;84.22;;;16.38;;
24389;SDS011;12510;56.468;-3.004;2022-11-23T01:01:54;53.53;;;15.25;;
24389;SDS011;12510;56.468;-3.004;2022-11-23T01:04:20;35.80;;;11.13;;
24389;SDS011;12510;56.468;-3.004;2022-11-23T01:06:46;30.52;;;10.80;;
24389;SDS011;12510;56.468;-3.004;2022-11-23T01:09:16;25.50;;;10.40;;
24389;SDS011;12510;56.468;-3.004;2022-11-23T01:11:43;37.92;;;11.23;;
24389;SDS011;12510;56.468;-3.004;2022-11-23T01:14:09;42.75;;;12.93;;
24389;SDS011;12510;56.468;-3.004;2022-11-23T01:16:39;29.08;;;11.20;;
24389;SDS011;12510;56.468;-3.004;2022-11-23T01:19:07;23.63;;;11.10;;
24389;SDS011;12510;56.468;-3.004;2022-11-23T01:21:33;22.50;;;9.48;;
24389;SDS011;12510;56.468;-3.004;2022-11-23T01:24:03;19.90;;;9.68;;
24389;SDS011;12510;56.468;-3.004;2022-11-23T01:26:29;19.60;;;10.00;;
24389;SDS011;12510;56.468;-3.004;2022-11-23T01:28:57;22.80;;;9.82;;
24389;SDS011;12510;56.468;-3.004;2022-11-23T01:31:23;28.65;;;9.35;;
24389;SDS011;12510;56.468;-3.004;2022-11-23T01:33:53;21.10;;;10.32;;
24389;SDS011;12510;56.468;-3.004;2022-11-23T01:36:20;31.48;;;11.88;;
24389;SDS011;12510;56.468;-3.004;2022-11-23T01:38:47;21.63;;;11.50;;
24389;SDS011;12510;56.468;-3.004;2022-11-23T01:41:15;28.88;;;12.52;;
24389;SDS011;12510;56.468;-3.004;2022-11-23T01:43:41;40.83;;;13.05;;
24389;SDS011;12510;56.468;-3.004;2022-11-23T01:46:08;55.65;;;16.75;;
24389;SDS011;12510;56.468;-3.004;2022-11-23T01:48:44;87.28;;;19.05;;
24389;SDS011;12510;56.468;-3.004;2022-11-23T01:51:13;106.13;;;21.17;;
24389;SDS011;12510;56.468;-3.004;2022-11-23T01:53:40;120.15;;;24.83;;
24389;SDS011;12510;56.468;-3.004;2022-11-23T01:56:07;98.30;;;20.52;;
24389;SDS011;12510;56.468;-3.004;2022-11-23T01:58:37;123.57;;;23.67;;
24389;SDS011;12510;56.468;-3.004;2022-11-23T02:01:05;105.85;;;17.30;;
24389;SDS011;12510;56.468;-3.004;2022-11-23T02:03:31;219.07;;;28.23;;
24389;SDS011;12510;56.468;-3.004;2022-11-23T02:06:02;249.25;;;37.95;;
24389;SDS011;12510;56.468;-3.004;2022-11-23T02:08:28;384.27;;;50.55;;
24389;SDS011;12510;56.468;-3.004;2022-11-23T02:10:55;116.20;;;17.60;;
24389;SDS011;12510;56.468;-3.004;2022-11-23T02:13:24;299.27;;;39.67;;
24389;SDS011;12510;56.468;-3.004;2022-11-23T02:15:50;269.40;;;40.40;;
24389;SDS011;12510;56.468;-3.004;2022-11-23T02:18:18;353.92;;;48.80;;
24389;SDS011;12510;56.468;-3.004;2022-11-23T02:20:47;281.58;;;40.45;;
24389;SDS011;12510;56.468;-3.004;2022-11-23T02:28:17;132.75;;;19.65;;
24389;SDS011;12510;56.468;-3.004;2022-11-23T02:30:44;111.85;;;21.90;;
24389;SDS011;12510;56.468;-3.004;2022-11-23T02:33:12;151.57;;;21.38;;
24389;SDS011;12510;56.468;-3.004;2022-11-23T02:35:52;282.13;;;35.90;;
24389;SDS011;12510;56.468;-3.004;2022-11-23T02:38:19;172.85;;;26.60;;
24389;SDS011;12510;56.468;-3.004;2022-11-23T02:40:45;238.73;;;34.45;;
24389;SDS011;12510;56.468;-3.004;2022-11-23T02:43:12;188.73;;;27.70;;
24389;SDS011;12510;56.468;-3.004;2022-11-23T02:45:42;111.38;;;19.77;;
24389;SDS011;12510;56.468;-3.004;2022-11-23T02:48:10;171.68;;;25.33;;
24389;SDS011;12510;56.468;-3.004;2022-11-23T02:50:37;82.28;;;16.90;;
24389;SDS011;12510;56.468;-3.004;2022-11-23T02:53:05;99.80;;;18.80;;
24389;SDS011;12510;56.468;-3.004;2022-11-23T02:55:31;63.83;;;14.25;;
24389;SDS011;12510;56.468;-3.004;2022-11-23T02:57:59;67.68;;;16.95;;
24389;SDS011;12510;56.468;-3.004;2022-11-23T03:00:27;83.20;;;17.58;;
24389;SDS011;12510;56.468;-3.004;2022-11-23T03:02:53;60.78;;;14.35;;
24389;SDS011;12510;56.468;-3.004;2022-11-23T03:05:19;109.30;;;19.30;;
24389;SDS011;12510;56.468;-3.004;2022-11-23T03:07:49;131.70;;;22.42;;
24389;SDS011;12510;56.468;-3.004;2022-11-23T03:10:16;98.93;;;19.63;;
24389;SDS011;12510;56.468;-3.004;2022-11-23T03:12:43;120.05;;;19.77;;
24389;SDS011;12510;56.468;-3.004;2022-11-23T03:15:12;73.63;;;16.13;;
24389;SDS011;12510;56.468;-3.004;2022-11-23T03:17:39;94.50;;;18.73;;
24389;SDS011;12510;56.468;-3.004;2022-11-23T03:20:08;200.70;;;29.83;;
24389;SDS011;12510;56.468;-3.004;2022-11-23T03:22:38;99.68;;;18.85;;
24389;SDS011;12510;56.468;-3.004;2022-11-23T03:25:05;56.45;;;14.15;;
24389;SDS011;12510;56.468;-3.004;2022-11-23T03:27:32;62.45;;;15.48;;
24389;SDS011;12510;56.468;-3.004;2022-11-23T03:30:00;49.42;;;13.55;;
24389;SDS011;12510;56.468;-3.004;2022-11-23T03:32:27;61.03;;;13.20;;
24389;SDS011;12510;56.468;-3.004;2022-11-23T03:34:54;28.83;;;10.50;;
24389;SDS011;12510;56.468;-3.004;2022-11-23T03:37:21;23.52;;;9.95;;
24389;SDS011;12510;56.468;-3.004;2022-11-23T03:39:47;26.65;;;9.02;;
24389;SDS011;12510;56.468;-3.004;2022-11-23T03:42:31;20.23;;;8.70;;
24389;SDS011;12510;56.468;-3.004;2022-11-23T03:44:57;18.13;;;8.95;;
24389;SDS011;12510;56.468;-3.004;2022-11-23T03:47:24;25.58;;;9.35;;
24389;SDS011;12510;56.468;-3.004;2022-11-23T03:49:50;23.20;;;9.23;;
24389;SDS011;12510;56.468;-3.004;2022-11-23T03:52:16;18.92;;;8.70;;
24389;SDS011;12510;56.468;-3.004;2022-11-23T03:54:43;20.08;;;9.15;;
24389;SDS011;12510;56.468;-3.004;2022-11-23T03:57:11;19.15;;;8.00;;
24389;SDS011;12510;56.468;-3.004;2022-11-23T03:59:37;18.05;;;7.07;;
24389;SDS011;12510;56.468;-3.004;2022-11-23T04:02:04;19.00;;;7.35;;
24389;SDS011;12510;56.468;-3.004;2022-11-23T04:04:35;16.15;;;7.10;;
24389;SDS011;12510;56.468;-3.004;2022-11-23T04:07:20;16.58;;;6.88;;
24389;SDS011;12510;56.468;-3.004;2022-11-23T04:09:50;20.00;;;6.97;;
24389;SDS011;12510;56.468;-3.004;2022-11-23T04:12:36;10.00;;;6.10;;
24389;SDS011;12510;56.468;-3.004;2022-11-23T04:15:02;9.70;;;5.72;;
24389;SDS011;12510;56.468;-3.004;2022-11-23T04:17:28;15.43;;;6.30;;
24389;SDS011;12510;56.468;-3.004;2022-11-23T04:19:54;12.43;;;6.50;;
24389;SDS011;12510;56.468;-3.004;2022-11-23T04:22:20;9.93;;;5.88;;
24389;SDS011;12510;56.468;-3.004;2022-11-23T04:24:48;14.70;;;6.18;;
24389;SDS011;12510;56.468;-3.004;2022-11-23T04:27:15;21.42;;;7.35;;
24389;SDS011;12510;56.468;-3.004;2022-11-23T04:29:41;18.63;;;6.30;;
24389;SDS011;12510;56.468;-3.004;2022-11-23T04:32:08;14.75;;;5.45;;
24389;SDS011;12510;56.468;-3.004;2022-11-23T04:34:35;15.60;;;5.80;;
24389;SDS011;12510;56.468;-3.004;2022-11-23T04:37:02;14.27;;;5.78;;
24389;SDS011;12510;56.468;-3.004;2022-11-23T04:39:35;11.77;;;5.20;;
24389;SDS011;12510;56.468;-3.004;2022-11-23T04:42:16;13.27;;;5.55;;
24389;SDS011;12510;56.468;-3.004;2022-11-23T04:44:48;12.55;;;4.40;;
24389;SDS011;12510;56.468;-3.004;2022-11-23T04:47:15;11.32;;;4.60;;
24389;SDS011;12510;56.468;-3.004;2022-11-23T04:49:43;13.77;;;4.63;;
24389;SDS011;12510;56.468;-3.004;2022-11-23T04:52:09;11.98;;;5.03;;
24389;SDS011;12510;56.468;-3.004;2022-11-23T04:54:41;14.63;;;4.50;;
24389;SDS011;12510;56.468;-3.004;2022-11-23T04:57:08;9.57;;;4.53;;
24389;SDS011;12510;56.468;-3.004;2022-11-23T04:59:34;9.23;;;4.13;;
24389;SDS011;12510;56.468;-3.004;2022-11-23T05:02:01;13.18;;;5.00;;
24389;SDS011;12510;56.468;-3.004;2022-11-23T05:05:05;11.15;;;5.03;;
24389;SDS011;12510;56.468;-3.004;2022-11-23T05:07:32;16.95;;;4.78;;
24389;SDS011;12510;56.468;-3.004;2022-11-23T05:10:02;17.45;;;4.60;;
24389;SDS011;12510;56.468;-3.004;2022-11-23T05:12:29;14.85;;;4.88;;
24389;SDS011;12510;56.468;-3.004;2022-11-23T05:14:55;14.93;;;3.65;;
24389;SDS011;12510;56.468;-3.004;2022-11-23T05:17:31;17.52;;;3.65;;
24389;SDS011;12510;56.468;-3.004;2022-11-23T05:19:58;12.05;;;4.95;;
24389;SDS011;12510;56.468;-3.004;2022-11-23T05:22:26;11.77;;;3.85;;
24389;SDS011;12510;56.468;-3.004;2022-11-23T05:24:52;11.95;;;4.32;;
24389;SDS011;12510;56.468;-3.004;2022-11-23T05:27:22;15.85;;;4.50;;
24389;SDS011;12510;56.468;-3.004;2022-11-23T05:29:48;15.23;;;3.42;;
24389;SDS011;12510;56.468;-3.004;2022-11-23T05:32:14;8.02;;;3.60;;
24389;SDS011;12510;56.468;-3.004;2022-11-23T05:34:41;9.00;;;3.30;;
24389;SDS011;12510;56.468;-3.004;2022-11-23T05:37:09;8.02;;;3.00;;
24389;SDS011;12510;56.468;-3.004;2022-11-23T05:39:41;11.55;;;3.03;;
24389;SDS011;12510;56.468;-3.004;2022-11-23T05:42:07;9.68;;;4.72;;
24389;SDS011;12510;56.468;-3.004;2022-11-23T05:44:40;10.30;;;3.17;;
24389;SDS011;12510;56.468;-3.004;2022-11-23T05:47:12;11.60;;;3.80;;
24389;SDS011;12510;56.468;-3.004;2022-11-23T05:49:38;12.55;;;3.80;;
24389;SDS011;12510;56.468;-3.004;2022-11-23T05:52:07;15.15;;;5.38;;
24389;SDS011;12510;56.468;-3.004;2022-11-23T05:54:35;8.18;;;2.97;;
24389;SDS011;12510;56.468;-3.004;2022-11-23T05:57:08;9.27;;;3.25;;
24389;SDS011;12510;56.468;-3.004;2022-11-23T05:59:42;14.93;;;4.22;;
24389;SDS011;12510;56.468;-3.004;2022-11-23T06:02:14;8.23;;;3.20;;
24389;SDS011;12510;56.468;-3.004;2022-11-23T06:04:40;13.35;;;3.70;;
24389;SDS011;12510;56.468;-3.004;2022-11-23T06:07:10;9.57;;;2.92;;
24389;SDS011;12510;56.468;-3.004;2022-11-23T06:09:53;9.68;;;3.58;;
24389;SDS011;12510;56.468;-3.004;2022-11-23T06:12:19;10.48;;;4.30;;
24389;SDS011;12510;56.468;-3.004;2022-11-23T06:14:45;12.65;;;3.17;;
24389;SDS011;12510;56.468;-3.004;2022-11-23T06:17:14;11.80;;;4.38;;
24389;SDS011;12510;56.468;-3.004;2022-11-23T06:19:46;11.27;;;3.22;;
24389;SDS011;12510;56.468;-3.004;2022-11-23T06:22:12;8.73;;;3.75;;
24389;SDS011;12510;56.468;-3.004;2022-11-23T06:24:56;13.32;;;5.10;;
24389;SDS011;12510;56.468;-3.004;2022-11-23T06:27:54;8.32;;;4.18;;
24389;SDS011;12510;56.468;-3.004;2022-11-23T06:30:24;15.55;;;3.70;;
24389;SDS011;12510;56.468;-3.004;2022-11-23T06:32:54;5.95;;;3.20;;
24389;SDS011;12510;56.468;-3.004;2022-11-23T06:35:22;5.97;;;3.22;;
24389;SDS011;12510;56.468;-3.004;2022-11-23T06:37:48;7.43;;;2.80;;
24389;SDS011;12510;56.468;-3.004;2022-11-23T06:40:15;8.40;;;2.78;;
24389;SDS011;12510;56.468;-3.004;2022-11-23T06:42:42;10.30;;;3.45;;
24389;SDS011;12510;56.468;-3.004;2022-11-23T06:45:22;12.90;;;3.35;;
24389;SDS011;12510;56.468;-3.004;2022-11-23T06:47:54;6.57;;;2.90;;
24389;SDS011;12510;56.468;-3.004;2022-11-23T06:50:21;8.68;;;3.00;;
24389;SDS011;12510;56.468;-3.004;2022-11-23T06:52:52;8.20;;;2.75;;
24389;SDS011;12510;56.468;-3.004;2022-11-23T06:55:19;8.27;;;3.50;;
24389;SDS011;12510;56.468;-3.004;2022-11-23T06:57:45;5.95;;;2.50;;
24389;SDS011;12510;56.468;-3.004;2022-11-23T07:00:12;9.80;;;2.97;;
24389;SDS011;12510;56.468;-3.004;2022-11-23T07:02:38;7.88;;;3.15;;
24389;SDS011;12510;56.468;-3.004;2022-11-23T07:05:05;8.20;;;2.60;;
24389;SDS011;12510;56.468;-3.004;2022-11-23T07:07:31;6.40;;;2.28;;
24389;SDS011;12510;56.468;-3.004;2022-11-23T07:10:06;4.65;;;2.10;;
24389;SDS011;12510;56.468;-3.004;2022-11-23T07:12:41;4.55;;;2.13;;
24389;SDS011;12510;56.468;-3.004;2022-11-23T07:15:07;5.82;;;2.42;;
24389;SDS011;12510;56.468;-3.004;2022-11-23T07:17:39;8.00;;;4.18;;
24389;SDS011;12510;56.468;-3.004;2022-11-23T07:20:09;6.43;;;2.83;;
24389;SDS011;12510;56.468;-3.004;2022-11-23T07:22:36;10.77;;;4.40;;
24389;SDS011;12510;56.468;-3.004;2022-11-23T07:25:03;4.78;;;2.78;;
24389;SDS011;12510;56.468;-3.004;2022-11-23T07:27:29;6.25;;;3.15;;
24389;SDS011;12510;56.468;-3.004;2022-11-23T07:29:55;5.00;;;2.05;;
24389;SDS011;12510;56.468;-3.004;2022-11-23T07:32:21;4.18;;;2.40;;
24389;SDS011;12510;56.468;-3.004;2022-11-23T07:34:48;6.68;;;2.05;;
24389;SDS011;12510;56.468;-3.004;2022-11-23T07:37:15;6.68;;;3.05;;
24389;SDS011;12510;56.468;-3.004;2022-11-23T07:39:42;24.58;;;13.98;;
24389;SDS011;12510;56.468;-3.004;2022-11-23T07:42:08;4.55;;;2.17;;
24389;SDS011;12510;56.468;-3.004;2022-11-23T07:44:37;6.00;;;4.68;;
24389;SDS011;12510;56.468;-3.004;2022-11-23T07:47:04;5.88;;;2.80;;
24389;SDS011;12510;56.468;-3.004;2022-11-23T07:49:30;6.45;;;2.78;;
24389;SDS011;12510;56.468;-3.004;2022-11-23T07:51:56;4.93;;;2.28;;
24389;SDS011;12510;56.468;-3.004;2022-11-23T07:54:22;5.15;;;3.88;;
24389;SDS011;12510;56.468;-3.004;2022-11-23T07:56:48;7.30;;;3.55;;
24389;SDS011;12510;56.468;-3.004;2022-11-23T07:59:14;8.65;;;4.18;;
24389;SDS011;12510;56.468;-3.004;2022-11-23T08:01:40;3.97;;;2.90;;
24389;SDS011;12510;56.468;-3.004;2022-11-23T08:04:06;7.15;;;3.60;;
24389;SDS011;12510;56.468;-3.004;2022-11-23T08:06:32;7.82;;;3.70;;
24389;SDS011;12510;56.468;-3.004;2022-11-23T08:08:58;9.25;;;6.60;;
24389;SDS011;12510;56.468;-3.004;2022-11-23T08:11:24;8.75;;;4.35;;
24389;SDS011;12510;56.468;-3.004;2022-11-23T08:13:50;10.23;;;3.65;;
24389;SDS011;12510;56.468;-3.004;2022-11-23T08:16:16;6.97;;;3.22;;
24389;SDS011;12510;56.468;-3.004;2022-11-23T08:18:44;12.48;;;7.63;;
24389;SDS011;12510;56.468;-3.004;2022-11-23T08:21:10;10.23;;;6.78;;
24389;SDS011;12510;56.468;-3.004;2022-11-23T08:23:36;5.93;;;3.05;;
24389;SDS011;12510;56.468;-3.004;2022-11-23T08:26:03;17.42;;;8.77;;
24389;SDS011;12510;56.468;-3.004;2022-11-23T08:28:30;4.70;;;3.70;;
24389;SDS011;12510;56.468;-3.004;2022-11-23T08:30:56;15.27;;;13.80;;
24389;SDS011;12510;56.468;-3.004;2022-11-23T08:33:22;9.18;;;4.15;;
24389;SDS011;12510;56.468;-3.004;2022-11-23T08:35:48;7.07;;;2.67;;
24389;SDS011;12510;56.468;-3.004;2022-11-23T08:38:14;7.80;;;6.72;;
24389;SDS011;12510;56.468;-3.004;2022-11-23T08:40:40;9.32;;;7.78;;
24389;SDS011;12510;56.468;-3.004;2022-11-23T08:43:06;12.13;;;5.90;;
24389;SDS011;12510;56.468;-3.004;2022-11-23T08:45:32;23.90;;;22.15;;
24389;SDS011;12510;56.468;-3.004;2022-11-23T08:48:01;5.25;;;2.47;;
24389;SDS011;12510;56.468;-3.004;2022-11-23T08:50:28;5.97;;;3.67;;
24389;SDS011;12510;56.468;-3.004;2022-11-23T08:52:58;5.20;;;2.90;;
24389;SDS011;12510;56.468;-3.004;2022-11-23T08:55:25;6.03;;;2.83;;
24389;SDS011;12510;56.468;-3.004;2022-11-23T08:57:58;12.63;;;7.45;;
24389;SDS011;12510;56.468;-3.004;2022-11-23T09:00:24;25.20;;;13.10;;
24389;SDS011;12510;56.468;-3.004;2022-11-23T09:02:50;12.13;;;10.35;;
24389;SDS011;12510;56.468;-3.004;2022-11-23T09:05:17;4.15;;;2.83;;
24389;SDS011;12510;56.468;-3.004;2022-11-23T09:07:43;6.55;;;2.75;;
24389;SDS011;12510;56.468;-3.004;2022-11-23T09:10:09;8.70;;;3.47;;
24389;SDS011;12510;56.468;-3.004;2022-11-23T09:12:35;7.22;;;3.70;;
24389;SDS011;12510;56.468;-3.004;2022-11-23T09:15:01;5.75;;;3.38;;
24389;SDS011;12510;56.468;-3.004;2022-11-23T09:17:29;8.85;;;3.90;;
24389;SDS011;12510;56.468;-3.004;2022-11-23T09:19:55;7.70;;;3.63;;
24389;SDS011;12510;56.468;-3.004;2022-11-23T09:22:21;8.82;;;7.95;;
24389;SDS011;12510;56.468;-3.004;2022-11-23T09:24:47;6.03;;;3.17;;
24389;SDS011;12510;56.468;-3.004;2022-11-23T09:27:13;6.85;;;4.47;;
24389;SDS011;12510;56.468;-3.004;2022-11-23T09:29:39;10.13;;;5.20;;
24389;SDS011;12510;56.468;-3.004;2022-11-23T09:32:05;15.20;;;13.63;;
24389;SDS011;12510;56.468;-3.004;2022-11-23T09:34:31;7.30;;;5.20;;
24389;SDS011;12510;56.468;-3.004;2022-11-23T09:36:57;4.65;;;3.25;;
24389;SDS011;12510;56.468;-3.004;2022-11-23T09:39:23;4.05;;;2.88;;
24389;SDS011;12510;56.468;-3.004;2022-11-23T09:46:54;4.75;;;3.20;;
24389;SDS011;12510;56.468;-3.004;2022-11-23T09:49:21;3.20;;;2.78;;
24389;SDS011;12510;56.468;-3.004;2022-11-23T09:51:53;7.07;;;3.88;;
24389;SDS011;12510;56.468;-3.004;2022-11-23T09:56:50;5.40;;;2.90;;
24389;SDS011;12510;56.468;-3.004;2022-11-23T10:02:02;4.60;;;3.38;;
24389;SDS011;12510;56.468;-3.004;2022-11-23T10:04:31;35.88;;;16.63;;
24389;SDS011;12510;56.468;-3.004;2022-11-23T10:07:01;22.23;;;10.35;;
24389;SDS011;12510;56.468;-3.004;2022-11-23T10:20:14;5.50;;;3.58;;
24389;SDS011;12510;56.468;-3.004;2022-11-23T10:22:58;6.22;;;3.58;;
24389;SDS011;12510;56.468;-3.004;2022-11-23T10:25:26;5.63;;;3.28;;
24389;SDS011;12510;56.468;-3.004;2022-11-23T10:27:57;14.48;;;3.53;;
24389;SDS011;12510;56.468;-3.004;2022-11-23T10:30:25;7.70;;;7.00;;
24389;SDS011;12510;56.468;-3.004;2022-11-23T10:32:57;35.47;;;21.48;;
24389;SDS011;12510;56.468;-3.004;2022-11-23T10:35:30;5.03;;;3.80;;
24389;SDS011;12510;56.468;-3.004;2022-11-23T10:38:05;6.75;;;4.03;;
24389;SDS011;12510;56.468;-3.004;2022-11-23T10:40:33;19.27;;;11.90;;
24389;SDS011;12510;56.468;-3.004;2022-11-23T10:43:00;24.70;;;10.05;;
24389;SDS011;12510;56.468;-3.004;2022-11-23T10:45:31;10.30;;;4.05;;
24389;SDS011;12510;56.468;-3.004;2022-11-23T10:47:58;11.32;;;7.78;;
24389;SDS011;12510;56.468;-3.004;2022-11-23T10:52:51;13.70;;;10.68;;
24389;SDS011;12510;56.468;-3.004;2022-11-23T10:55:17;24.92;;;17.48;;
24389;SDS011;12510;56.468;-3.004;2022-11-23T10:57:44;7.97;;;3.97;;
24389;SDS011;12510;56.468;-3.004;2022-11-23T11:02:43;4.25;;;3.17;;
24389;SDS011;12510;56.468;-3.004;2022-11-23T11:07:55;11.50;;;6.68;;
24389;SDS011;12510;56.468;-3.004;2022-11-23T11:13:20;10.25;;;7.32;;
24389;SDS011;12510;56.468;-3.004;2022-11-23T11:15:54;9.10;;;3.00;;
24389;SDS011;12510;56.468;-3.004;2022-11-23T11:18:20;33.05;;;22.77;;
24389;SDS011;12510;56.468;-3.004;2022-11-23T11:20:48;3.85;;;2.47;;
24389;SDS011;12510;56.468;-3.004;2022-11-23T11:23:21;19.20;;;9.40;;
24389;SDS011;12510;56.468;-3.004;2022-11-23T11:25:47;17.65;;;7.85;;
24389;SDS011;12510;56.468;-3.004;2022-11-23T11:30:55;4.85;;;3.60;;
24389;SDS011;12510;56.468;-3.004;2022-11-23T11:36:19;16.10;;;9.55;;
24389;SDS011;12510;56.468;-3.004;2022-11-23T11:38:47;9.32;;;8.60;;
24389;SDS011;12510;56.468;-3.004;2022-11-23T11:41:14;7.90;;;3.45;;
24389;SDS011;12510;56.468;-3.004;2022-11-23T11:43:43;4.00;;;2.30;;
24389;SDS011;12510;56.468;-3.004;2022-11-23T11:51:07;6.20;;;3.22;;
24389;SDS011;12510;56.468;-3.004;2022-11-23T11:53:38;6.57;;;2.50;;
24389;SDS011;12510;56.468;-3.004;2022-11-23T11:56:10;6.68;;;2.72;;
24389;SDS011;12510;56.468;-3.004;2022-11-23T11:58:40;11.25;;;8.95;;
24389;SDS011;12510;56.468;-3.004;2022-11-23T12:01:16;6.00;;;2.95;;
24389;SDS011;12510;56.468;-3.004;2022-11-23T12:03:53;4.18;;;2.83;;
24389;SDS011;12510;56.468;-3.004;2022-11-23T12:06:38;6.15;;;3.28;;
24389;SDS011;12510;56.468;-3.004;2022-11-23T12:11:33;4.03;;;2.40;;
24389;SDS011;12510;56.468;-3.004;2022-11-23T12:14:00;5.68;;;3.22;;
24389;SDS011;12510;56.468;-3.004;2022-11-23T12:16:32;6.18;;;3.08;;
24389;SDS011;12510;56.468;-3.004;2022-11-23T12:19:08;4.50;;;2.75;;
24389;SDS011;12510;56.468;-3.004;2022-11-23T12:26:45;5.43;;;2.83;;
24389;SDS011;12510;56.468;-3.004;2022-11-23T12:31:49;4.38;;;2.70;;
24389;SDS011;12510;56.468;-3.004;2022-11-23T12:37:30;6.78;;;3.30;;
24389;SDS011;12510;56.468;-3.004;2022-11-23T12:39:59;5.45;;;2.83;;
24389;SDS011;12510;56.468;-3.004;2022-11-23T12:42:38;4.20;;;2.67;;
24389;SDS011;12510;56.468;-3.004;2022-11-23T12:47:57;4.15;;;2.70;;
24389;SDS011;12510;56.468;-3.004;2022-11-23T12:57:54;5.78;;;3.22;;
24389;SDS011;12510;56.468;-3.004;2022-11-23T13:00:24;4.63;;;2.40;;
24389;SDS011;12510;56.468;-3.004;2022-11-23T13:16:08;7.20;;;3.13;;
24389;SDS011;12510;56.468;-3.004;2022-11-23T13:23:51;4.65;;;2.60;;
24389;SDS011;12510;56.468;-3.004;2022-11-23T13:26:21;7.07;;;2.58;;
24389;SDS011;12510;56.468;-3.004;2022-11-23T13:28:48;4.03;;;2.17;;
24389;SDS011;12510;56.468;-3.004;2022-11-23T13:33:44;3.47;;;2.13;;
24389;SDS011;12510;56.468;-3.004;2022-11-23T13:38:59;6.03;;;2.00;;
24389;SDS011;12510;56.468;-3.004;2022-11-23T13:44:21;3.50;;;2.00;;
24389;SDS011;12510;56.468;-3.004;2022-11-23T13:49:45;3.70;;;2.15;;
24389;SDS011;12510;56.468;-3.004;2022-11-23T13:55:00;4.60;;;2.50;;
24389;SDS011;12510;56.468;-3.004;2022-11-23T13:57:27;3.20;;;2.15;;
24389;SDS011;12510;56.468;-3.004;2022-11-23T14:00:40;2.58;;;2.38;;
24389;SDS011;12510;56.468;-3.004;2022-11-23T14:02:40;3.50;;;2.40;;
24389;SDS011;12510;56.468;-3.004;2022-11-23T14:07:50;2.65;;;2.30;;
24389;SDS011;12510;56.468;-3.004;2022-11-23T14:15:14;4.25;;;1.60;;
24389;SDS011;12510;56.468;-3.004;2022-11-23T14:43:00;2.83;;;1.92;;
24389;SDS011;12510;56.468;-3.004;2022-11-23T14:45:28;1.50;;;1.40;;
24389;SDS011;12510;56.468;-3.004;2022-11-23T14:47:56;2.72;;;1.63;;
24389;SDS011;12510;56.468;-3.004;2022-11-23T14:50:23;1.90;;;1.38;;
24389;SDS011;12510;56.468;-3.004;2022-11-23T14:52:50;2.75;;;2.00;;
24389;SDS011;12510;56.468;-3.004;2022-11-23T14:55:19;3.25;;;1.60;;
24389;SDS011;12510;56.468;-3.004;2022-11-23T14:57:46;2.10;;;1.67;;
24389;SDS011;12510;56.468;-3.004;2022-11-23T15:02:48;1.17;;;1.08;;
24389;SDS011;12510;56.468;-3.004;2022-11-23T15:05:16;4.75;;;3.05;;
24389;SDS011;12510;56.468;-3.004;2022-11-23T15:08:01;1.55;;;1.42;;
24389;SDS011;12510;56.468;-3.004;2022-11-23T15:12:56;2.83;;;1.40;;
24389;SDS011;12510;56.468;-3.004;2022-11-23T15:15:26;1.30;;;1.02;;
24389;SDS011;12510;56.468;-3.004;2022-11-23T15:17:54;1.55;;;1.02;;
24389;SDS011;12510;56.468;-3.004;2022-11-23T15:20:20;2.95;;;1.20;;
24389;SDS011;12510;56.468;-3.004;2022-11-23T15:22:47;1.02;;;1.00;;
24389;SDS011;12510;56.468;-3.004;2022-11-23T15:25:14;3.85;;;1.73;;
24389;SDS011;12510;56.468;-3.004;2022-11-23T15:27:41;2.80;;;1.52;;
24389;SDS011;12510;56.468;-3.004;2022-11-23T15:30:13;1.95;;;1.45;;
24389;SDS011;12510;56.468;-3.004;2022-11-23T15:32:39;1.98;;;1.33;;
24389;SDS011;12510;56.468;-3.004;2022-11-23T15:35:06;3.90;;;1.33;;
24389;SDS011;12510;56.468;-3.004;2022-11-23T15:37:36;4.28;;;1.60;;
24389;SDS011;12510;56.468;-3.004;2022-11-23T15:42:31;3.25;;;1.42;;
24389;SDS011;12510;56.468;-3.004;2022-11-23T15:44:57;4.03;;;1.45;;
24389;SDS011;12510;56.468;-3.004;2022-11-23T15:47:24;4.72;;;2.75;;
24389;SDS011;12510;56.468;-3.004;2022-11-23T15:49:53;5.65;;;2.95;;
24389;SDS011;12510;56.468;-3.004;2022-11-23T15:52:23;6.63;;;2.78;;
24389;SDS011;12510;56.468;-3.004;2022-11-23T15:54:49;4.38;;;2.05;;
24389;SDS011;12510;56.468;-3.004;2022-11-23T15:57:20;4.35;;;2.28;;
24389;SDS011;12510;56.468;-3.004;2022-11-23T15:59:54;3.50;;;2.25;;
24389;SDS011;12510;56.468;-3.004;2022-11-23T16:02:21;4.05;;;2.65;;
24389;SDS011;12510;56.468;-3.004;2022-11-23T16:04:48;3.60;;;2.47;;
24389;SDS011;12510;56.468;-3.004;2022-11-23T16:10:10;2.72;;;1.80;;
24389;SDS011;12510;56.468;-3.004;2022-11-23T16:12:46;5.28;;;2.03;;
24389;SDS011;12510;56.468;-3.004;2022-11-23T16:17:54;3.05;;;1.70;;
24389;SDS011;12510;56.468;-3.004;2022-11-23T16:20:21;5.45;;;3.00;;
24389;SDS011;12510;56.468;-3.004;2022-11-23T16:22:48;2.42;;;1.40;;
24389;SDS011;12510;56.468;-3.004;2022-11-23T16:25:36;3.20;;;1.83;;
24389;SDS011;12510;56.468;-3.004;2022-11-23T16:28:02;2.22;;;1.48;;
24389;SDS011;12510;56.468;-3.004;2022-11-23T16:30:39;2.17;;;1.50;;
24389;SDS011;12510;56.468;-3.004;2022-11-23T16:33:11;4.03;;;1.92;;
24389;SDS011;12510;56.468;-3.004;2022-11-23T16:35:37;1.85;;;1.75;;
24389;SDS011;12510;56.468;-3.004;2022-11-23T16:38:04;5.50;;;2.33;;
24389;SDS011;12510;56.468;-3.004;2022-11-23T16:40:30;8.55;;;2.10;;
24389;SDS011;12510;56.468;-3.004;2022-11-23T16:42:56;2.17;;;1.98;;
24389;SDS011;12510;56.468;-3.004;2022-11-23T16:45:23;3.35;;;2.50;;
24389;SDS011;12510;56.468;-3.004;2022-11-23T16:47:50;5.65;;;2.33;;
24389;SDS011;12510;56.468;-3.004;2022-11-23T16:50:16;15.27;;;7.63;;
24389;SDS011;12510;56.468;-3.004;2022-11-23T16:52:43;5.72;;;2.88;;
24389;SDS011;12510;56.468;-3.004;2022-11-23T16:55:09;4.82;;;3.63;;
24389;SDS011;12510;56.468;-3.004;2022-11-23T16:57:35;3.80;;;2.50;;
24389;SDS011;12510;56.468;-3.004;2022-11-23T17:00:04;6.32;;;3.25;;